createdAt,value
2022-09-12T00:01:12.894Z,15.50
2022-09-12T00:03:40.281Z,15.50
2022-09-12T00:06:22.617Z,15.50
2022-09-12T00:08:50.320Z,15.50
2022-09-12T00:11:16.938Z,15.50
2022-09-12T00:13:43.916Z,15.50
2022-09-12T00:16:21.905Z,15.40
2022-09-12T00:18:49.171Z,15.50
2022-09-12T00:21:17.493Z,15.40
2022-09-12T00:23:44.758Z,15.40
2022-09-12T00:26:11.499Z,15.40
2022-09-12T00:28:39.569Z,15.40
2022-09-12T00:31:09.533Z,15.40
2022-09-12T00:33:36.687Z,15.40
2022-09-12T00:36:16.337Z,15.40
2022-09-12T00:38:44.458Z,15.40
2022-09-12T00:41:17.720Z,15.40
2022-09-12T00:43:47.758Z,15.40
2022-09-12T00:46:19.207Z,15.30
2022-09-12T00:48:52.508Z,15.30
2022-09-12T00:51:19.934Z,15.40
2022-09-12T00:53:50.038Z,15.30
2022-09-12T00:56:18.745Z,15.30
2022-09-12T00:59:04.024Z,15.30
2022-09-12T01:01:32.755Z,15.30
2022-09-12T01:04:00.213Z,15.30
2022-09-12T01:06:35.243Z,15.30
2022-09-12T01:09:04.442Z,15.30
2022-09-12T01:11:39.060Z,15.20
2022-09-12T01:14:07.279Z,15.20
2022-09-12T01:16:37.861Z,15.20
2022-09-12T01:19:33.113Z,15.20
2022-09-12T01:22:18.518Z,15.20
2022-09-12T01:25:10.092Z,15.20
2022-09-12T01:27:53.449Z,15.10
2022-09-12T01:30:45.453Z,15.10
2022-09-12T01:33:17.769Z,15.10
2022-09-12T01:36:02.963Z,15.10
2022-09-12T01:38:46.919Z,15.00
2022-09-12T01:41:16.679Z,15.00
2022-09-12T01:43:48.061Z,15.00
2022-09-12T01:46:19.321Z,15.00
2022-09-12T01:48:59.138Z,15.00
2022-09-12T01:51:29.758Z,15.00
2022-09-12T01:54:10.282Z,15.00
2022-09-12T01:56:40.736Z,15.00
2022-09-12T01:59:37.098Z,15.00
2022-09-12T02:02:06.270Z,15.00
2022-09-12T02:04:52.952Z,15.00
2022-09-12T02:07:41.848Z,15.00
2022-09-12T02:10:08.635Z,15.00
2022-09-12T02:12:58.033Z,15.00
2022-09-12T02:15:30.085Z,15.00
2022-09-12T02:18:01.038Z,15.00
2022-09-12T02:20:54.638Z,15.00
2022-09-12T02:23:25.435Z,15.00
2022-09-12T02:25:57.747Z,15.00
2022-09-12T02:28:31.914Z,15.00
2022-09-12T02:31:10.435Z,15.00
2022-09-12T02:33:53.243Z,15.00
2022-09-12T02:36:40.010Z,15.00
2022-09-12T02:39:06.819Z,15.00
2022-09-12T02:41:33.641Z,15.00
2022-09-12T02:44:00.501Z,15.00
2022-09-12T02:46:40.777Z,15.00
2022-09-12T02:49:09.425Z,15.00
2022-09-12T02:51:37.049Z,15.00
2022-09-12T02:54:06.425Z,15.00
2022-09-12T02:56:33.440Z,15.00
2022-09-12T02:59:06.760Z,15.00
2022-09-12T03:01:33.406Z,15.00
2022-09-12T03:04:21.782Z,15.00
2022-09-12T03:07:13.008Z,15.00
2022-09-12T03:10:14.980Z,14.90
2022-09-12T03:13:03.297Z,14.90
2022-09-12T03:15:41.927Z,14.90
2022-09-12T03:18:38.399Z,14.90
2022-09-12T03:21:19.326Z,14.90
2022-09-12T03:24:13.699Z,14.90
2022-09-12T03:26:43.239Z,14.90
2022-09-12T03:29:11.583Z,14.80
2022-09-12T03:31:47.615Z,14.80
2022-09-12T03:34:14.330Z,14.80
2022-09-12T03:36:41.697Z,14.80
2022-09-12T03:39:08.306Z,14.80
2022-09-12T03:41:34.929Z,14.80
2022-09-12T03:44:01.795Z,14.80
2022-09-12T03:46:28.433Z,14.80
2022-09-12T03:48:55.068Z,14.80
2022-09-12T03:51:22.118Z,14.80
2022-09-12T03:53:48.781Z,14.80
2022-09-12T03:56:15.436Z,14.80
2022-09-12T03:58:42.538Z,14.80
2022-09-12T04:01:12.748Z,14.80
2022-09-12T04:03:43.841Z,14.80
2022-09-12T04:06:12.049Z,14.80
2022-09-12T04:08:38.961Z,14.80
2022-09-12T04:11:10.580Z,14.90
2022-09-12T04:13:38.555Z,14.90
2022-09-12T04:16:05.970Z,14.90
2022-09-12T04:18:33.060Z,14.90
2022-09-12T04:21:07.596Z,14.90
2022-09-12T04:23:34.813Z,14.90
2022-09-12T04:26:03.141Z,14.90
2022-09-12T04:28:30.447Z,14.90
2022-09-12T04:31:02.846Z,15.00
2022-09-12T04:33:29.581Z,15.00
2022-09-12T04:35:56.284Z,15.00
2022-09-12T04:38:22.907Z,15.00
2022-09-12T04:40:49.533Z,15.00
2022-09-12T04:43:16.582Z,15.00
2022-09-12T04:45:43.247Z,15.00
2022-09-12T04:48:09.925Z,15.10
2022-09-12T04:50:36.610Z,15.10
2022-09-12T04:53:03.336Z,15.10
2022-09-12T04:55:30.083Z,15.10
2022-09-12T04:57:56.712Z,15.20
2022-09-12T05:00:23.388Z,15.10
2022-09-12T05:02:50.141Z,15.20
2022-09-12T05:05:17.346Z,15.20
2022-09-12T05:07:44.048Z,15.20
2022-09-12T05:10:10.777Z,15.30
2022-09-12T05:12:37.430Z,15.30
2022-09-12T05:15:04.712Z,15.30
2022-09-12T05:17:31.341Z,15.30
2022-09-12T05:19:57.978Z,15.30
2022-09-12T05:22:25.134Z,15.30
2022-09-12T05:24:51.779Z,15.30
2022-09-12T05:27:18.455Z,15.40
2022-09-12T05:29:45.193Z,15.40
2022-09-12T05:32:12.515Z,15.40
2022-09-12T05:34:40.141Z,15.40
2022-09-12T05:37:06.965Z,15.40
2022-09-12T05:39:33.738Z,15.40
2022-09-12T05:42:00.392Z,15.50
2022-09-12T05:44:27.109Z,15.50
2022-09-12T05:46:53.786Z,15.50
2022-09-12T05:49:21.492Z,15.50
2022-09-12T05:51:48.133Z,15.50
2022-09-12T05:54:18.740Z,15.50
2022-09-12T05:56:45.692Z,15.50
2022-09-12T05:59:15.244Z,15.50
2022-09-12T06:01:42.405Z,15.50
2022-09-12T06:04:09.560Z,15.50
2022-09-12T06:06:47.007Z,15.50
2022-09-12T06:09:16.117Z,15.50
2022-09-12T06:11:42.987Z,15.50
2022-09-12T06:14:12.766Z,15.50
2022-09-12T06:16:39.872Z,15.50
2022-09-12T06:19:12.545Z,15.60
2022-09-12T06:21:39.817Z,15.60
2022-09-12T06:24:07.517Z,15.60
2022-09-12T06:26:34.851Z,15.60
2022-09-12T06:29:02.290Z,15.60
2022-09-12T06:31:31.569Z,15.60
2022-09-12T06:34:01.196Z,15.60
2022-09-12T06:36:30.967Z,15.60
2022-09-12T06:39:03.639Z,15.60
2022-09-12T06:41:31.622Z,15.70
2022-09-12T06:43:59.093Z,15.70
2022-09-12T06:46:26.605Z,15.80
2022-09-12T06:48:55.457Z,15.80
2022-09-12T06:51:22.211Z,15.80
2022-09-12T06:53:49.550Z,15.90
2022-09-12T06:56:21.644Z,15.90
2022-09-12T06:58:50.432Z,16.00
2022-09-12T07:01:21.683Z,16.00
2022-09-12T07:03:53.893Z,16.10
2022-09-12T07:06:24.157Z,16.20
2022-09-12T07:08:50.955Z,16.20
2022-09-12T07:11:24.035Z,16.20
2022-09-12T07:13:52.717Z,16.30
2022-09-12T07:16:20.311Z,16.40
2022-09-12T07:18:58.195Z,16.40
2022-09-12T07:21:25.205Z,16.50
2022-09-12T07:23:52.049Z,16.50
2022-09-12T07:26:18.983Z,16.60
2022-09-12T07:28:45.696Z,16.70
2022-09-12T07:31:18.313Z,16.70
2022-09-12T07:33:45.265Z,16.80
2022-09-12T07:36:14.561Z,16.90
2022-09-12T07:38:42.382Z,16.90
2022-09-12T07:41:19.149Z,17.00
2022-09-12T07:43:46.044Z,17.10
2022-09-12T07:46:14.228Z,17.20
2022-09-12T07:48:41.237Z,17.20
2022-09-12T07:51:10.789Z,17.30
2022-09-12T07:53:39.954Z,17.30
2022-09-12T07:56:08.463Z,17.40
2022-09-12T07:58:36.577Z,17.50
2022-09-12T08:01:15.811Z,17.60
2022-09-12T08:03:45.002Z,17.60
2022-09-12T08:06:17.367Z,17.70
2022-09-12T08:08:44.016Z,17.80
2022-09-12T08:11:13.607Z,17.90
2022-09-12T08:13:41.850Z,17.90
2022-09-12T08:16:17.953Z,18.00
2022-09-12T08:18:44.946Z,18.10
2022-09-12T08:21:20.019Z,18.20
2022-09-12T08:23:47.244Z,18.30
2022-09-12T08:26:14.067Z,18.40
2022-09-12T08:28:45.620Z,18.40
2022-09-12T08:31:15.232Z,18.50
2022-09-12T08:33:42.171Z,18.60
2022-09-12T08:36:22.557Z,18.70
2022-09-12T08:38:50.664Z,18.80
2022-09-12T08:41:47.731Z,18.90
2022-09-12T08:44:25.946Z,19.00
2022-09-12T08:47:10.302Z,19.00
2022-09-12T08:49:54.470Z,19.10
2022-09-12T08:52:30.871Z,19.20
2022-09-12T08:54:57.712Z,19.30
2022-09-12T08:57:24.803Z,19.30
2022-09-12T08:59:52.925Z,19.40
2022-09-12T09:02:41.430Z,19.50
2022-09-12T09:05:15.040Z,19.60
2022-09-12T09:08:10.650Z,19.60
2022-09-12T09:10:52.894Z,19.70
2022-09-12T09:13:53.442Z,19.80
2022-09-12T09:16:30.622Z,19.90
2022-09-12T09:19:05.506Z,20.00
2022-09-12T09:21:34.851Z,20.10
2022-09-12T09:24:06.472Z,20.20
2022-09-12T09:27:00.700Z,20.20
2022-09-12T09:29:34.634Z,20.30
2022-09-12T09:32:09.480Z,20.40
2022-09-12T09:34:36.184Z,20.50
2022-09-12T09:37:36.162Z,20.50
2022-09-12T09:40:15.622Z,20.60
2022-09-12T09:43:00.540Z,20.70
2022-09-12T09:45:30.116Z,20.70
2022-09-12T09:48:09.946Z,20.80
2022-09-12T09:50:37.820Z,20.90
2022-09-12T09:53:07.334Z,20.90
2022-09-12T09:55:42.984Z,21.00
2022-09-12T09:58:09.684Z,21.10
2022-09-12T10:00:38.151Z,21.10
2022-09-12T10:03:37.093Z,21.20
2022-09-12T10:06:23.639Z,21.30
2022-09-12T10:08:50.857Z,21.30
2022-09-12T10:11:23.244Z,21.40
2022-09-12T10:13:59.931Z,21.50
2022-09-12T10:16:28.156Z,21.60
2022-09-12T10:19:00.607Z,21.60
2022-09-12T10:21:30.392Z,21.70
2022-09-12T10:24:13.479Z,21.70
2022-09-12T10:26:41.794Z,21.80
2022-09-12T10:29:18.890Z,21.90
2022-09-12T10:31:51.253Z,21.90
2022-09-12T10:34:25.972Z,22.00
2022-09-12T10:36:58.839Z,22.10
2022-09-12T10:39:26.132Z,22.10
2022-09-12T10:41:52.792Z,22.20
2022-09-12T10:44:27.315Z,22.20
2022-09-12T10:46:54.603Z,22.30
2022-09-12T10:49:37.904Z,22.30
2022-09-12T10:52:25.047Z,22.40
2022-09-12T10:54:51.916Z,22.50
2022-09-12T10:57:43.925Z,22.60
2022-09-12T11:00:20.459Z,22.60
2022-09-12T11:03:15.245Z,22.70
2022-09-12T11:05:57.794Z,22.70
2022-09-12T11:08:34.080Z,22.80
2022-09-12T11:11:04.070Z,22.90
2022-09-12T11:13:45.746Z,22.90
2022-09-12T11:16:27.290Z,23.00
2022-09-12T11:19:04.035Z,23.00
2022-09-12T11:21:38.426Z,23.10
2022-09-12T11:24:23.161Z,23.20
2022-09-12T11:27:08.277Z,23.20
2022-09-12T11:29:47.273Z,23.30
2022-09-12T11:32:32.180Z,23.30
2022-09-12T11:35:31.548Z,23.40
2022-09-12T11:38:05.075Z,23.40
2022-09-12T11:40:40.668Z,23.40
2022-09-12T11:43:26.227Z,23.50
2022-09-12T11:45:53.657Z,23.50
2022-09-12T11:48:40.021Z,23.60
2022-09-12T11:51:18.222Z,23.60
2022-09-12T11:53:50.549Z,23.70
2022-09-12T11:56:18.635Z,23.70
2022-09-12T11:58:54.580Z,23.70
2022-09-12T12:01:28.610Z,23.80
2022-09-12T12:03:57.023Z,23.80
2022-09-12T12:06:39.986Z,23.80
2022-09-12T12:09:06.676Z,23.90
2022-09-12T12:11:41.872Z,23.90
2022-09-12T12:14:35.753Z,23.90
2022-09-12T12:17:02.587Z,24.00
2022-09-12T12:19:37.627Z,24.10
2022-09-12T12:22:24.732Z,24.10
2022-09-12T12:25:07.464Z,24.20
2022-09-12T12:27:51.332Z,24.20
2022-09-12T12:30:30.402Z,24.30
2022-09-12T12:33:27.253Z,24.30
2022-09-12T12:35:59.835Z,24.30
2022-09-12T12:38:30.805Z,24.40
2022-09-12T12:41:19.321Z,24.40
2022-09-12T12:43:54.710Z,24.50
2022-09-12T12:46:31.151Z,24.50
2022-09-12T12:49:17.345Z,24.60
2022-09-12T12:51:58.880Z,24.60
2022-09-12T12:54:42.194Z,24.70
2022-09-12T12:57:39.379Z,24.70
2022-09-12T13:00:25.981Z,24.80
2022-09-12T13:03:06.551Z,24.80
2022-09-12T13:05:46.033Z,24.80
2022-09-12T13:08:18.785Z,24.90
2022-09-12T13:11:07.428Z,24.90
2022-09-12T13:13:49.743Z,24.90
2022-09-12T13:16:37.843Z,25.00
2022-09-12T13:19:20.273Z,25.00
2022-09-12T13:22:16.097Z,25.10
2022-09-12T13:24:44.786Z,25.10
2022-09-12T13:27:18.977Z,25.20
2022-09-12T13:29:45.857Z,25.20
2022-09-12T13:32:12.788Z,25.30
2022-09-12T13:35:00.131Z,25.30
2022-09-12T13:37:26.705Z,25.40
2022-09-12T13:40:08.308Z,25.50
2022-09-12T13:42:53.229Z,25.50
2022-09-12T13:45:21.789Z,25.50
2022-09-12T13:47:57.883Z,25.70
2022-09-12T13:50:39.476Z,25.80
2022-09-12T13:53:12.108Z,26.00
2022-09-12T13:55:46.163Z,26.20
2022-09-12T13:58:22.914Z,26.50
2022-09-12T14:01:22.522Z,26.80
2022-09-12T14:04:13.247Z,27.20
2022-09-12T14:06:49.662Z,27.60
2022-09-12T14:09:25.233Z,28.00
2022-09-12T14:11:52.761Z,28.30
2022-09-12T14:14:34.190Z,28.60
2022-09-12T14:17:01.078Z,28.90
2022-09-12T14:19:29.122Z,29.10
2022-09-12T14:21:57.215Z,29.30
2022-09-12T14:24:24.420Z,29.40
2022-09-12T14:26:54.158Z,29.40
2022-09-12T14:29:21.529Z,29.50
2022-09-12T14:32:01.641Z,29.40
2022-09-12T14:34:28.435Z,29.50
2022-09-12T14:36:57.176Z,29.40
2022-09-12T14:39:31.666Z,29.40
2022-09-12T14:42:14.319Z,29.30
2022-09-12T14:44:50.149Z,29.30
2022-09-12T14:47:24.887Z,29.20
2022-09-12T14:49:52.247Z,29.10
2022-09-12T14:52:26.161Z,29.00
2022-09-12T14:55:18.656Z,29.00
2022-09-12T14:57:47.865Z,29.00
2022-09-12T15:00:20.914Z,28.80
2022-09-12T15:02:49.182Z,28.70
2022-09-12T15:05:20.739Z,28.50
2022-09-12T15:07:56.798Z,28.40
2022-09-12T15:10:33.977Z,28.20
2022-09-12T15:13:11.838Z,28.00
2022-09-12T15:15:40.188Z,27.70
2022-09-12T15:18:07.190Z,27.60
2022-09-12T15:20:38.936Z,27.50
2022-09-12T15:23:12.126Z,27.30
2022-09-12T15:25:38.817Z,27.20
2022-09-12T15:28:20.938Z,27.10
2022-09-12T15:30:50.501Z,27.10
2022-09-12T15:33:19.572Z,27.00
2022-09-12T15:35:46.444Z,27.00
2022-09-12T15:38:13.174Z,27.10
2022-09-12T15:40:40.174Z,27.20
2022-09-12T15:43:07.068Z,27.30
2022-09-12T15:45:35.361Z,27.40
2022-09-12T15:48:03.326Z,27.50
2022-09-12T15:50:30.504Z,27.60
2022-09-12T15:52:57.601Z,27.70
2022-09-12T15:55:30.197Z,27.70
2022-09-12T15:57:56.794Z,27.70
2022-09-12T16:00:23.795Z,27.70
2022-09-12T16:02:52.955Z,27.60
2022-09-12T16:05:23.250Z,27.50
2022-09-12T16:07:53.324Z,27.40
2022-09-12T16:10:23.978Z,27.40
2022-09-12T16:12:51.366Z,27.40
2022-09-12T16:15:20.826Z,27.30
2022-09-12T16:17:47.944Z,27.20
2022-09-12T16:20:14.888Z,27.00
2022-09-12T16:22:42.409Z,27.00
2022-09-12T16:25:09.548Z,27.00
2022-09-12T16:27:37.481Z,26.80
2022-09-12T16:30:06.163Z,26.90
2022-09-12T16:32:33.417Z,26.90
2022-09-12T16:35:00.401Z,27.00
2022-09-12T16:37:27.360Z,27.00
2022-09-12T16:39:54.082Z,26.90
2022-09-12T16:42:20.811Z,26.90
2022-09-12T16:44:47.670Z,26.80
2022-09-12T16:47:15.098Z,26.70
2022-09-12T16:49:41.746Z,26.60
2022-09-12T16:52:08.657Z,26.50
2022-09-12T16:54:35.398Z,26.40
2022-09-12T16:57:05.062Z,26.20
2022-09-12T16:59:32.100Z,26.20
2022-09-12T17:01:58.858Z,26.10
2022-09-12T17:04:25.637Z,26.00
2022-09-12T17:06:52.331Z,25.90
2022-09-12T17:09:19.116Z,25.80
2022-09-12T17:11:50.276Z,25.70
2022-09-12T17:14:17.169Z,25.60
2022-09-12T17:16:50.737Z,25.50
2022-09-12T17:19:22.076Z,25.40
2022-09-12T17:21:49.967Z,25.20
2022-09-12T17:24:17.729Z,25.20
2022-09-12T17:26:45.049Z,25.00
2022-09-12T17:29:15.787Z,24.90
2022-09-12T17:31:44.054Z,24.80
2022-09-12T17:34:14.313Z,24.80
2022-09-12T17:36:44.187Z,24.60
2022-09-12T17:39:11.902Z,24.60
2022-09-12T17:41:38.838Z,24.40
2022-09-12T17:44:07.555Z,24.40
2022-09-12T17:46:38.386Z,24.30
2022-09-12T17:49:08.090Z,24.20
2022-09-12T17:51:35.221Z,24.10
2022-09-12T17:54:04.616Z,24.00
2022-09-12T17:56:33.006Z,24.00
2022-09-12T17:59:00.317Z,23.90
2022-09-12T18:01:46.354Z,23.80
2022-09-12T18:04:13.637Z,23.70
2022-09-12T18:06:40.920Z,23.60
2022-09-12T18:09:09.535Z,23.50
2022-09-12T18:11:36.499Z,23.50
2022-09-12T18:14:03.121Z,23.40
2022-09-12T18:16:31.364Z,23.30
2022-09-12T18:19:01.480Z,23.20
2022-09-12T18:21:28.948Z,23.10
2022-09-12T18:23:58.872Z,23.00
2022-09-12T18:26:27.146Z,22.90
2022-09-12T18:28:54.229Z,22.90
2022-09-12T18:31:24.432Z,22.80
2022-09-12T18:33:51.601Z,22.70
2022-09-12T18:36:19.367Z,22.60
2022-09-12T18:38:46.128Z,22.60
2022-09-12T18:41:14.876Z,22.50
2022-09-12T18:43:42.147Z,22.40
2022-09-12T18:46:15.969Z,22.40
2022-09-12T18:48:43.189Z,22.30
2022-09-12T18:51:15.024Z,22.30
2022-09-12T18:53:42.742Z,22.20
2022-09-12T18:56:12.054Z,22.10
2022-09-12T18:58:40.674Z,22.00
2022-09-12T19:01:15.998Z,21.90
2022-09-12T19:03:43.508Z,21.90
2022-09-12T19:06:21.708Z,21.80
2022-09-12T19:08:50.165Z,21.70
2022-09-12T19:11:17.847Z,21.70
2022-09-12T19:13:46.119Z,21.60
2022-09-12T19:16:16.712Z,21.50
2022-09-12T19:18:43.672Z,21.50
2022-09-12T19:21:22.429Z,21.40
2022-09-12T19:23:50.046Z,21.30
2022-09-12T19:26:18.138Z,21.30
2022-09-12T19:28:45.300Z,21.20
2022-09-12T19:31:15.125Z,21.20
2022-09-12T19:33:42.831Z,21.20
2022-09-12T19:36:33.697Z,21.10
2022-09-12T19:39:00.112Z,21.00
2022-09-12T19:41:26.848Z,21.00
2022-09-12T19:43:55.685Z,20.90
2022-09-12T19:46:24.165Z,20.90
2022-09-12T19:48:52.371Z,20.80
2022-09-12T19:51:20.835Z,20.80
2022-09-12T19:53:47.796Z,20.80
2022-09-12T19:56:14.936Z,20.80
2022-09-12T19:58:46.635Z,20.80
2022-09-12T20:01:17.520Z,20.80
2022-09-12T20:03:44.840Z,20.70
2022-09-12T20:06:13.906Z,20.70
2022-09-12T20:08:44.620Z,20.70
2022-09-12T20:11:14.013Z,20.70
2022-09-12T20:13:41.374Z,20.70
2022-09-12T20:16:29.213Z,20.70
2022-09-12T20:19:01.735Z,20.70
2022-09-12T20:21:34.164Z,20.60
2022-09-12T20:24:07.253Z,20.60
2022-09-12T20:26:34.132Z,20.60
2022-09-12T20:29:01.341Z,20.50
2022-09-12T20:31:28.565Z,20.50
2022-09-12T20:33:55.553Z,20.50
2022-09-12T20:36:22.933Z,20.50
2022-09-12T20:38:59.878Z,20.40
2022-09-12T20:41:28.526Z,20.40
2022-09-12T20:43:56.881Z,20.40
2022-09-12T20:46:24.928Z,20.30
2022-09-12T20:48:52.259Z,20.40
2022-09-12T20:51:24.548Z,20.30
2022-09-12T20:53:58.093Z,20.30
2022-09-12T20:56:26.580Z,20.30
2022-09-12T20:58:54.201Z,20.20
2022-09-12T21:01:21.713Z,20.20
2022-09-12T21:03:48.758Z,20.20
2022-09-12T21:06:19.289Z,20.20
2022-09-12T21:08:47.489Z,20.20
2022-09-12T21:11:16.895Z,20.10
2022-09-12T21:13:43.913Z,20.10
2022-09-12T21:16:16.816Z,20.10
2022-09-12T21:18:43.973Z,20.00
2022-09-12T21:21:15.044Z,20.00
2022-09-12T21:23:42.301Z,20.00
2022-09-12T21:26:09.026Z,20.00
2022-09-12T21:28:35.746Z,19.90
2022-09-12T21:31:02.525Z,19.90
2022-09-12T21:33:29.283Z,19.90
2022-09-12T21:36:00.594Z,19.90
2022-09-12T21:38:27.218Z,19.90
2022-09-12T21:41:06.455Z,19.90
2022-09-12T21:43:33.305Z,19.80
2022-09-12T21:46:00.999Z,19.80
2022-09-12T21:48:28.285Z,19.80
2022-09-12T21:50:55.041Z,19.80
2022-09-12T21:53:21.733Z,19.70
2022-09-12T21:55:48.600Z,19.80
2022-09-12T21:58:15.276Z,19.80
2022-09-12T22:00:42.368Z,19.70
2022-09-12T22:03:10.362Z,19.70
2022-09-12T22:05:40.054Z,19.70
2022-09-12T22:08:07.898Z,19.70
2022-09-12T22:10:34.793Z,19.70
2022-09-12T22:13:01.669Z,19.70
2022-09-12T22:15:43.842Z,19.70
2022-09-12T22:18:11.412Z,19.70
2022-09-12T22:20:38.037Z,19.70
2022-09-12T22:23:24.950Z,19.70
2022-09-12T22:25:55.086Z,19.70
2022-09-12T22:28:22.505Z,19.70
2022-09-12T22:30:49.248Z,19.70
2022-09-12T22:33:15.941Z,19.70
2022-09-12T22:35:42.580Z,19.70
2022-09-12T22:38:09.353Z,19.70
2022-09-12T22:40:35.997Z,19.70
2022-09-12T22:43:02.751Z,19.60
2022-09-12T22:45:29.378Z,19.60
2022-09-12T22:48:00.411Z,19.70
2022-09-12T22:50:27.584Z,19.60
2022-09-12T22:52:54.219Z,19.60
2022-09-12T22:55:20.856Z,19.70
2022-09-12T22:57:47.650Z,19.70
2022-09-12T23:00:14.993Z,19.60
2022-09-12T23:02:41.656Z,19.60
2022-09-12T23:05:08.613Z,19.60
2022-09-12T23:07:35.614Z,19.60
2022-09-12T23:10:02.246Z,19.60
2022-09-12T23:12:28.970Z,19.60
2022-09-12T23:14:55.574Z,19.60
2022-09-12T23:17:22.217Z,19.60
2022-09-12T23:19:48.900Z,19.60
2022-09-12T23:22:15.495Z,19.60
2022-09-12T23:24:42.130Z,19.50
2022-09-12T23:27:08.926Z,19.50
2022-09-12T23:29:35.629Z,19.50
2022-09-12T23:32:05.756Z,19.50
2022-09-12T23:34:33.531Z,19.50
2022-09-12T23:37:00.161Z,19.50
2022-09-12T23:39:26.899Z,19.50
2022-09-12T23:41:53.593Z,19.50
2022-09-12T23:44:20.219Z,19.50
2022-09-12T23:46:46.815Z,19.40
2022-09-12T23:49:13.541Z,19.50
2022-09-12T23:51:40.140Z,19.50
2022-09-12T23:54:06.924Z,19.40
2022-09-12T23:56:33.676Z,19.40
2022-09-12T23:59:00.361Z,19.40
